sensor_id;sensor_type;location;lat;lon;timestamp;temperature;humidity
23079;DHT22;11707;50.830;4.364;2022-08-01T00:01:35;20.40;99.90
23079;DHT22;11707;50.830;4.364;2022-08-01T00:04:00;20.50;99.90
23079;DHT22;11707;50.830;4.364;2022-08-01T00:06:26;20.50;99.90
23079;DHT22;11707;50.830;4.364;2022-08-01T00:08:52;20.30;99.90
23079;DHT22;11707;50.830;4.364;2022-08-01T00:11:18;20.30;99.90
23079;DHT22;11707;50.830;4.364;2022-08-01T00:13:43;20.30;99.90
23079;DHT22;11707;50.830;4.364;2022-08-01T00:16:09;20.30;99.90
23079;DHT22;11707;50.830;4.364;2022-08-01T00:18:35;20.30;99.90
23079;DHT22;11707;50.830;4.364;2022-08-01T00:21:02;20.30;99.90
23079;DHT22;11707;50.830;4.364;2022-08-01T00:23:28;20.30;99.90
23079;DHT22;11707;50.830;4.364;2022-08-01T00:25:54;20.30;99.90
23079;DHT22;11707;50.830;4.364;2022-08-01T00:28:19;20.30;99.90
23079;DHT22;11707;50.830;4.364;2022-08-01T00:30:45;20.40;99.90
23079;DHT22;11707;50.830;4.364;2022-08-01T00:33:10;20.40;99.90
23079;DHT22;11707;50.830;4.364;2022-08-01T00:35:36;20.30;99.90
23079;DHT22;11707;50.830;4.364;2022-08-01T00:38:02;20.30;99.90
23079;DHT22;11707;50.830;4.364;2022-08-01T00:40:28;20.20;99.90
23079;DHT22;11707;50.830;4.364;2022-08-01T00:42:53;20.30;99.90
23079;DHT22;11707;50.830;4.364;2022-08-01T00:45:19;20.30;99.90
23079;DHT22;11707;50.830;4.364;2022-08-01T00:47:45;20.20;99.90
23079;DHT22;11707;50.830;4.364;2022-08-01T00:50:11;20.20;99.90
23079;DHT22;11707;50.830;4.364;2022-08-01T00:52:39;20.20;99.90
23079;DHT22;11707;50.830;4.364;2022-08-01T00:55:05;20.20;99.90
23079;DHT22;11707;50.830;4.364;2022-08-01T00:57:31;20.20;99.90
23079;DHT22;11707;50.830;4.364;2022-08-01T00:59:57;20.10;99.90
23079;DHT22;11707;50.830;4.364;2022-08-01T01:02:23;20.10;99.90
23079;DHT22;11707;50.830;4.364;2022-08-01T01:04:49;20.10;99.90
23079;DHT22;11707;50.830;4.364;2022-08-01T01:10:05;20.10;99.90
23079;DHT22;11707;50.830;4.364;2022-08-01T01:12:44;20.20;99.90
23079;DHT22;11707;50.830;4.364;2022-08-01T01:15:16;20.20;99.90
23079;DHT22;11707;50.830;4.364;2022-08-01T01:17:57;20.10;99.90
23079;DHT22;11707;50.830;4.364;2022-08-01T01:20:28;20.00;99.90
23079;DHT22;11707;50.830;4.364;2022-08-01T01:30:31;19.80;99.90
23079;DHT22;11707;50.830;4.364;2022-08-01T01:33:01;19.80;99.90
23079;DHT22;11707;50.830;4.364;2022-08-01T01:35:31;19.80;99.90
23079;DHT22;11707;50.830;4.364;2022-08-01T01:38:05;19.80;99.90
23079;DHT22;11707;50.830;4.364;2022-08-01T01:40:32;19.80;99.90
23079;DHT22;11707;50.830;4.364;2022-08-01T01:42:59;19.70;99.90
23079;DHT22;11707;50.830;4.364;2022-08-01T01:45:25;19.70;99.90
23079;DHT22;11707;50.830;4.364;2022-08-01T01:47:52;19.70;99.90
23079;DHT22;11707;50.830;4.364;2022-08-01T01:50:21;19.70;99.90
23079;DHT22;11707;50.830;4.364;2022-08-01T01:52:48;19.80;99.90
23079;DHT22;11707;50.830;4.364;2022-08-01T01:55:14;19.80;99.90
23079;DHT22;11707;50.830;4.364;2022-08-01T01:57:42;19.80;99.90
23079;DHT22;11707;50.830;4.364;2022-08-01T02:00:12;19.80;99.90
23079;DHT22;11707;50.830;4.364;2022-08-01T02:02:39;19.70;99.90
23079;DHT22;11707;50.830;4.364;2022-08-01T02:05:07;19.60;99.90
23079;DHT22;11707;50.830;4.364;2022-08-01T02:07:39;19.60;99.90
23079;DHT22;11707;50.830;4.364;2022-08-01T02:10:06;19.60;99.90
23079;DHT22;11707;50.830;4.364;2022-08-01T02:12:37;19.50;99.90
23079;DHT22;11707;50.830;4.364;2022-08-01T02:15:05;19.50;99.90
23079;DHT22;11707;50.830;4.364;2022-08-01T02:17:31;19.50;99.90
23079;DHT22;11707;50.830;4.364;2022-08-01T02:19:57;19.70;99.90
23079;DHT22;11707;50.830;4.364;2022-08-01T02:22:29;19.70;99.90
23079;DHT22;11707;50.830;4.364;2022-08-01T02:25:06;19.60;99.90
23079;DHT22;11707;50.830;4.364;2022-08-01T02:27:37;19.50;99.90
23079;DHT22;11707;50.830;4.364;2022-08-01T02:30:08;19.40;99.90
23079;DHT22;11707;50.830;4.364;2022-08-01T02:32:40;19.50;99.90
23079;DHT22;11707;50.830;4.364;2022-08-01T02:35:11;19.60;99.90
23079;DHT22;11707;50.830;4.364;2022-08-01T02:37:39;19.70;99.90
23079;DHT22;11707;50.830;4.364;2022-08-01T02:40:05;19.60;99.90
23079;DHT22;11707;50.830;4.364;2022-08-01T02:42:34;19.60;99.90
23079;DHT22;11707;50.830;4.364;2022-08-01T02:45:02;19.50;99.90
23079;DHT22;11707;50.830;4.364;2022-08-01T02:47:30;19.50;99.90
23079;DHT22;11707;50.830;4.364;2022-08-01T02:49:58;19.50;99.90
23079;DHT22;11707;50.830;4.364;2022-08-01T02:52:25;19.50;99.90
23079;DHT22;11707;50.830;4.364;2022-08-01T02:54:54;19.50;99.90
23079;DHT22;11707;50.830;4.364;2022-08-01T02:57:21;19.50;99.90
23079;DHT22;11707;50.830;4.364;2022-08-01T02:59:49;19.50;99.90
23079;DHT22;11707;50.830;4.364;2022-08-01T03:02:16;19.50;99.90
23079;DHT22;11707;50.830;4.364;2022-08-01T03:04:44;19.50;99.90
23079;DHT22;11707;50.830;4.364;2022-08-01T03:07:11;19.50;99.90
23079;DHT22;11707;50.830;4.364;2022-08-01T03:09:40;19.60;99.90
23079;DHT22;11707;50.830;4.364;2022-08-01T03:12:13;19.50;99.90
23079;DHT22;11707;50.830;4.364;2022-08-01T03:14:42;19.40;99.90
23079;DHT22;11707;50.830;4.364;2022-08-01T03:17:09;19.40;99.90
23079;DHT22;11707;50.830;4.364;2022-08-01T03:19:37;19.30;99.90
23079;DHT22;11707;50.830;4.364;2022-08-01T03:22:06;19.30;99.90
23079;DHT22;11707;50.830;4.364;2022-08-01T03:24:34;19.30;99.90
23079;DHT22;11707;50.830;4.364;2022-08-01T03:27:02;19.30;99.90
23079;DHT22;11707;50.830;4.364;2022-08-01T03:29:30;19.30;99.90
23079;DHT22;11707;50.830;4.364;2022-08-01T03:31:58;19.20;99.90
23079;DHT22;11707;50.830;4.364;2022-08-01T03:34:25;19.30;99.90
23079;DHT22;11707;50.830;4.364;2022-08-01T03:37:17;19.30;99.90
23079;DHT22;11707;50.830;4.364;2022-08-01T03:40:00;19.20;99.90
23079;DHT22;11707;50.830;4.364;2022-08-01T03:42:34;19.20;99.90
23079;DHT22;11707;50.830;4.364;2022-08-01T03:45:06;19.10;99.90
23079;DHT22;11707;50.830;4.364;2022-08-01T03:47:35;19.10;99.90
23079;DHT22;11707;50.830;4.364;2022-08-01T03:50:05;19.10;99.90
23079;DHT22;11707;50.830;4.364;2022-08-01T03:52:32;19.10;99.90
23079;DHT22;11707;50.830;4.364;2022-08-01T03:55:04;19.10;99.90
23079;DHT22;11707;50.830;4.364;2022-08-01T03:57:32;19.10;99.90
23079;DHT22;11707;50.830;4.364;2022-08-01T03:59:59;19.00;99.90
23079;DHT22;11707;50.830;4.364;2022-08-01T04:02:27;19.00;99.90
23079;DHT22;11707;50.830;4.364;2022-08-01T04:04:53;18.90;99.90
23079;DHT22;11707;50.830;4.364;2022-08-01T04:07:27;18.90;99.90
23079;DHT22;11707;50.830;4.364;2022-08-01T04:09:53;18.70;99.90
23079;DHT22;11707;50.830;4.364;2022-08-01T04:12:20;18.70;99.90
23079;DHT22;11707;50.830;4.364;2022-08-01T04:14:46;18.70;99.90
23079;DHT22;11707;50.830;4.364;2022-08-01T04:17:12;18.70;99.90
23079;DHT22;11707;50.830;4.364;2022-08-01T04:19:38;18.60;99.90
23079;DHT22;11707;50.830;4.364;2022-08-01T04:22:04;18.60;99.90
23079;DHT22;11707;50.830;4.364;2022-08-01T04:24:32;18.70;99.90
23079;DHT22;11707;50.830;4.364;2022-08-01T04:27:00;18.70;99.90
23079;DHT22;11707;50.830;4.364;2022-08-01T04:29:28;18.60;99.90
23079;DHT22;11707;50.830;4.364;2022-08-01T04:31:55;18.50;99.90
23079;DHT22;11707;50.830;4.364;2022-08-01T04:34:25;18.60;99.90
23079;DHT22;11707;50.830;4.364;2022-08-01T04:36:54;18.70;99.90
23079;DHT22;11707;50.830;4.364;2022-08-01T04:39:24;18.60;99.90
23079;DHT22;11707;50.830;4.364;2022-08-01T04:41:52;18.60;99.90
23079;DHT22;11707;50.830;4.364;2022-08-01T04:44:22;18.70;99.90
23079;DHT22;11707;50.830;4.364;2022-08-01T04:46:48;18.70;99.90
23079;DHT22;11707;50.830;4.364;2022-08-01T04:49:15;18.80;99.90
23079;DHT22;11707;50.830;4.364;2022-08-01T04:51:54;18.90;99.90
23079;DHT22;11707;50.830;4.364;2022-08-01T04:54:24;18.90;99.90
23079;DHT22;11707;50.830;4.364;2022-08-01T04:56:50;18.90;99.90
23079;DHT22;11707;50.830;4.364;2022-08-01T04:59:16;18.80;99.90
23079;DHT22;11707;50.830;4.364;2022-08-01T05:02:00;18.70;99.90
23079;DHT22;11707;50.830;4.364;2022-08-01T05:04:25;18.70;99.90
23079;DHT22;11707;50.830;4.364;2022-08-01T05:06:51;18.60;99.90
23079;DHT22;11707;50.830;4.364;2022-08-01T05:09:17;18.70;99.90
23079;DHT22;11707;50.830;4.364;2022-08-01T05:11:42;18.80;99.90
23079;DHT22;11707;50.830;4.364;2022-08-01T05:14:08;18.70;99.90
23079;DHT22;11707;50.830;4.364;2022-08-01T05:16:34;18.80;99.90
23079;DHT22;11707;50.830;4.364;2022-08-01T05:18:59;18.90;99.90
23079;DHT22;11707;50.830;4.364;2022-08-01T05:21:25;19.00;99.90
23079;DHT22;11707;50.830;4.364;2022-08-01T05:23:50;19.10;99.90
23079;DHT22;11707;50.830;4.364;2022-08-01T05:26:17;19.10;99.90
23079;DHT22;11707;50.830;4.364;2022-08-01T05:28:42;19.10;99.90
23079;DHT22;11707;50.830;4.364;2022-08-01T05:31:08;19.10;99.90
23079;DHT22;11707;50.830;4.364;2022-08-01T05:33:34;19.10;99.90
23079;DHT22;11707;50.830;4.364;2022-08-01T05:35:59;19.20;99.90
23079;DHT22;11707;50.830;4.364;2022-08-01T05:38:25;19.20;99.90
23079;DHT22;11707;50.830;4.364;2022-08-01T05:40:51;19.20;99.90
23079;DHT22;11707;50.830;4.364;2022-08-01T05:43:16;19.20;99.90
23079;DHT22;11707;50.830;4.364;2022-08-01T05:45:42;19.30;99.90
23079;DHT22;11707;50.830;4.364;2022-08-01T05:48:08;19.50;99.90
23079;DHT22;11707;50.830;4.364;2022-08-01T05:50:33;19.50;99.90
23079;DHT22;11707;50.830;4.364;2022-08-01T05:52:59;19.50;99.90
23079;DHT22;11707;50.830;4.364;2022-08-01T05:55:25;19.50;99.90
23079;DHT22;11707;50.830;4.364;2022-08-01T05:57:51;19.40;99.90
23079;DHT22;11707;50.830;4.364;2022-08-01T06:00:16;19.50;99.90
23079;DHT22;11707;50.830;4.364;2022-08-01T06:02:42;19.50;99.90
23079;DHT22;11707;50.830;4.364;2022-08-01T06:05:09;19.50;99.90
23079;DHT22;11707;50.830;4.364;2022-08-01T06:07:35;19.40;99.90
23079;DHT22;11707;50.830;4.364;2022-08-01T06:10:01;19.40;99.90
23079;DHT22;11707;50.830;4.364;2022-08-01T06:12:27;19.60;99.90
23079;DHT22;11707;50.830;4.364;2022-08-01T06:14:53;19.60;99.90
23079;DHT22;11707;50.830;4.364;2022-08-01T06:17:18;19.60;99.90
23079;DHT22;11707;50.830;4.364;2022-08-01T06:19:44;19.50;99.90
23079;DHT22;11707;50.830;4.364;2022-08-01T06:22:10;19.60;99.90
23079;DHT22;11707;50.830;4.364;2022-08-01T06:24:36;19.60;99.90
23079;DHT22;11707;50.830;4.364;2022-08-01T06:27:02;19.70;99.90
23079;DHT22;11707;50.830;4.364;2022-08-01T06:29:30;19.80;99.90
23079;DHT22;11707;50.830;4.364;2022-08-01T06:31:56;19.90;99.90
23079;DHT22;11707;50.830;4.364;2022-08-01T06:34:22;20.10;99.90
23079;DHT22;11707;50.830;4.364;2022-08-01T06:36:48;20.00;99.90
23079;DHT22;11707;50.830;4.364;2022-08-01T06:39:14;20.10;99.90
23079;DHT22;11707;50.830;4.364;2022-08-01T06:41:39;20.20;99.90
23079;DHT22;11707;50.830;4.364;2022-08-01T06:44:07;20.10;99.90
23079;DHT22;11707;50.830;4.364;2022-08-01T06:46:34;20.20;99.90
23079;DHT22;11707;50.830;4.364;2022-08-01T06:48:59;20.20;99.90
23079;DHT22;11707;50.830;4.364;2022-08-01T06:51:25;20.20;99.90
23079;DHT22;11707;50.830;4.364;2022-08-01T06:53:51;20.50;99.90
23079;DHT22;11707;50.830;4.364;2022-08-01T06:56:18;20.60;99.90
23079;DHT22;11707;50.830;4.364;2022-08-01T06:58:43;20.60;99.90
23079;DHT22;11707;50.830;4.364;2022-08-01T07:01:09;20.70;99.90
23079;DHT22;11707;50.830;4.364;2022-08-01T07:03:35;20.80;99.90
23079;DHT22;11707;50.830;4.364;2022-08-01T07:06:01;20.80;99.90
23079;DHT22;11707;50.830;4.364;2022-08-01T07:08:27;20.80;99.90
23079;DHT22;11707;50.830;4.364;2022-08-01T07:10:53;20.80;99.90
23079;DHT22;11707;50.830;4.364;2022-08-01T07:13:18;20.90;99.90
23079;DHT22;11707;50.830;4.364;2022-08-01T07:15:48;21.00;99.90
23079;DHT22;11707;50.830;4.364;2022-08-01T07:18:14;21.00;99.90
23079;DHT22;11707;50.830;4.364;2022-08-01T07:20:39;21.00;99.90
23079;DHT22;11707;50.830;4.364;2022-08-01T07:23:05;21.10;99.90
23079;DHT22;11707;50.830;4.364;2022-08-01T07:25:31;21.10;99.90
23079;DHT22;11707;50.830;4.364;2022-08-01T07:27:56;21.10;99.90
23079;DHT22;11707;50.830;4.364;2022-08-01T07:30:22;21.00;99.90
23079;DHT22;11707;50.830;4.364;2022-08-01T07:32:48;20.90;99.90
23079;DHT22;11707;50.830;4.364;2022-08-01T07:35:13;20.80;99.90
23079;DHT22;11707;50.830;4.364;2022-08-01T07:37:39;20.70;99.90
23079;DHT22;11707;50.830;4.364;2022-08-01T07:40:05;20.90;99.90
23079;DHT22;11707;50.830;4.364;2022-08-01T07:42:31;21.00;99.90
23079;DHT22;11707;50.830;4.364;2022-08-01T07:44:57;21.10;99.90
23079;DHT22;11707;50.830;4.364;2022-08-01T07:47:24;21.10;99.90
23079;DHT22;11707;50.830;4.364;2022-08-01T07:49:50;21.10;99.90
23079;DHT22;11707;50.830;4.364;2022-08-01T07:52:16;21.00;99.90
23079;DHT22;11707;50.830;4.364;2022-08-01T07:54:42;21.00;99.90
23079;DHT22;11707;50.830;4.364;2022-08-01T07:57:08;21.20;99.90
23079;DHT22;11707;50.830;4.364;2022-08-01T07:59:34;21.40;99.90
23079;DHT22;11707;50.830;4.364;2022-08-01T08:02:00;21.40;99.90
23079;DHT22;11707;50.830;4.364;2022-08-01T08:04:27;21.40;99.90
23079;DHT22;11707;50.830;4.364;2022-08-01T08:06:53;21.50;99.90
23079;DHT22;11707;50.830;4.364;2022-08-01T08:09:19;21.50;99.90
23079;DHT22;11707;50.830;4.364;2022-08-01T08:11:46;21.50;99.90
23079;DHT22;11707;50.830;4.364;2022-08-01T08:14:11;21.70;99.90
23079;DHT22;11707;50.830;4.364;2022-08-01T08:16:38;21.70;99.90
23079;DHT22;11707;50.830;4.364;2022-08-01T08:19:04;21.80;99.90
23079;DHT22;11707;50.830;4.364;2022-08-01T08:21:29;21.90;99.90
23079;DHT22;11707;50.830;4.364;2022-08-01T08:23:55;21.90;99.90
23079;DHT22;11707;50.830;4.364;2022-08-01T08:26:40;21.70;99.90
23079;DHT22;11707;50.830;4.364;2022-08-01T08:29:06;21.70;99.90
23079;DHT22;11707;50.830;4.364;2022-08-01T08:31:32;21.80;99.90
23079;DHT22;11707;50.830;4.364;2022-08-01T08:33:58;21.90;99.90
23079;DHT22;11707;50.830;4.364;2022-08-01T08:36:24;21.90;99.90
23079;DHT22;11707;50.830;4.364;2022-08-01T08:38:50;21.80;99.90
23079;DHT22;11707;50.830;4.364;2022-08-01T08:41:15;21.50;99.90
23079;DHT22;11707;50.830;4.364;2022-08-01T08:43:41;21.50;99.90
23079;DHT22;11707;50.830;4.364;2022-08-01T08:46:08;21.60;99.90
23079;DHT22;11707;50.830;4.364;2022-08-01T08:48:37;21.70;99.90
23079;DHT22;11707;50.830;4.364;2022-08-01T08:51:04;21.70;99.90
23079;DHT22;11707;50.830;4.364;2022-08-01T08:53:32;21.80;99.90
23079;DHT22;11707;50.830;4.364;2022-08-01T08:55:59;21.80;99.90
23079;DHT22;11707;50.830;4.364;2022-08-01T08:58:26;22.00;99.90
23079;DHT22;11707;50.830;4.364;2022-08-01T09:00:56;22.10;99.90
23079;DHT22;11707;50.830;4.364;2022-08-01T09:03:21;22.20;99.90
23079;DHT22;11707;50.830;4.364;2022-08-01T09:05:47;22.40;99.90
23079;DHT22;11707;50.830;4.364;2022-08-01T09:08:13;22.40;99.90
23079;DHT22;11707;50.830;4.364;2022-08-01T09:10:39;22.40;99.90
23079;DHT22;11707;50.830;4.364;2022-08-01T09:13:10;22.50;99.90
23079;DHT22;11707;50.830;4.364;2022-08-01T09:15:48;22.50;99.90
23079;DHT22;11707;50.830;4.364;2022-08-01T09:18:35;22.70;99.90
23079;DHT22;11707;50.830;4.364;2022-08-01T09:23:51;22.90;99.90
23079;DHT22;11707;50.830;4.364;2022-08-01T09:26:20;22.90;99.90
23079;DHT22;11707;50.830;4.364;2022-08-01T09:28:47;22.90;99.90
23079;DHT22;11707;50.830;4.364;2022-08-01T09:31:18;23.10;99.90
23079;DHT22;11707;50.830;4.364;2022-08-01T09:36:12;23.00;99.90
23079;DHT22;11707;50.830;4.364;2022-08-01T09:38:38;22.80;99.90
23079;DHT22;11707;50.830;4.364;2022-08-01T09:41:03;22.50;99.90
23079;DHT22;11707;50.830;4.364;2022-08-01T09:43:30;22.40;99.90
23079;DHT22;11707;50.830;4.364;2022-08-01T09:45:57;22.50;99.90
23079;DHT22;11707;50.830;4.364;2022-08-01T09:48:23;22.60;99.90
23079;DHT22;11707;50.830;4.364;2022-08-01T09:50:50;22.70;99.90
23079;DHT22;11707;50.830;4.364;2022-08-01T09:53:17;22.80;99.90
23079;DHT22;11707;50.830;4.364;2022-08-01T09:55:43;22.90;99.90
23079;DHT22;11707;50.830;4.364;2022-08-01T09:58:09;23.00;99.90
23079;DHT22;11707;50.830;4.364;2022-08-01T10:00:37;23.20;99.90
23079;DHT22;11707;50.830;4.364;2022-08-01T10:03:21;23.50;99.90
23079;DHT22;11707;50.830;4.364;2022-08-01T10:05:47;23.90;99.90
23079;DHT22;11707;50.830;4.364;2022-08-01T10:08:13;24.40;99.90
23079;DHT22;11707;50.830;4.364;2022-08-01T10:10:39;24.80;99.90
23079;DHT22;11707;50.830;4.364;2022-08-01T10:13:05;25.00;99.90
23079;DHT22;11707;50.830;4.364;2022-08-01T10:15:31;25.00;99.90
23079;DHT22;11707;50.830;4.364;2022-08-01T10:18:00;24.70;99.90
23079;DHT22;11707;50.830;4.364;2022-08-01T10:20:33;24.50;99.90
23079;DHT22;11707;50.830;4.364;2022-08-01T10:23:02;24.20;99.90
23079;DHT22;11707;50.830;4.364;2022-08-01T10:25:30;24.10;99.90
23079;DHT22;11707;50.830;4.364;2022-08-01T10:27:59;24.00;99.90
23079;DHT22;11707;50.830;4.364;2022-08-01T10:30:27;24.00;99.90
23079;DHT22;11707;50.830;4.364;2022-08-01T10:32:54;23.80;99.90
23079;DHT22;11707;50.830;4.364;2022-08-01T10:35:21;24.00;99.90
23079;DHT22;11707;50.830;4.364;2022-08-01T10:37:48;24.10;99.90
23079;DHT22;11707;50.830;4.364;2022-08-01T10:40:16;24.10;99.90
23079;DHT22;11707;50.830;4.364;2022-08-01T10:42:44;24.20;99.90
23079;DHT22;11707;50.830;4.364;2022-08-01T10:45:12;24.20;99.90
23079;DHT22;11707;50.830;4.364;2022-08-01T10:47:45;24.20;99.90
23079;DHT22;11707;50.830;4.364;2022-08-01T10:50:27;24.30;99.90
23079;DHT22;11707;50.830;4.364;2022-08-01T10:56:04;24.80;99.90
23079;DHT22;11707;50.830;4.364;2022-08-01T10:58:35;24.60;99.90
23079;DHT22;11707;50.830;4.364;2022-08-01T11:06:53;24.10;99.90
23079;DHT22;11707;50.830;4.364;2022-08-01T11:09:24;24.20;99.90
23079;DHT22;11707;50.830;4.364;2022-08-01T11:12:06;24.40;99.90
23079;DHT22;11707;50.830;4.364;2022-08-01T11:17:44;24.30;99.90
23079;DHT22;11707;50.830;4.364;2022-08-01T11:20:14;24.20;99.90
23079;DHT22;11707;50.830;4.364;2022-08-01T11:25:25;24.50;99.90
23079;DHT22;11707;50.830;4.364;2022-08-01T11:28:29;24.70;99.90
23079;DHT22;11707;50.830;4.364;2022-08-01T11:41:26;24.80;99.90
23079;DHT22;11707;50.830;4.364;2022-08-01T11:43:57;24.80;99.90
23079;DHT22;11707;50.830;4.364;2022-08-01T11:46:58;24.90;99.90
23079;DHT22;11707;50.830;4.364;2022-08-01T11:54:43;25.00;99.90
23079;DHT22;11707;50.830;4.364;2022-08-01T11:57:11;25.10;99.90
23079;DHT22;11707;50.830;4.364;2022-08-01T11:59:41;25.10;99.90
23079;DHT22;11707;50.830;4.364;2022-08-01T12:02:21;24.80;99.90
23079;DHT22;11707;50.830;4.364;2022-08-01T12:05:01;24.60;99.90
23079;DHT22;11707;50.830;4.364;2022-08-01T12:07:29;24.50;99.90
23079;DHT22;11707;50.830;4.364;2022-08-01T12:10:04;24.70;99.90
23079;DHT22;11707;50.830;4.364;2022-08-01T12:12:32;25.00;99.90
23079;DHT22;11707;50.830;4.364;2022-08-01T12:15:00;25.00;99.90
23079;DHT22;11707;50.830;4.364;2022-08-01T12:17:33;24.90;99.90
23079;DHT22;11707;50.830;4.364;2022-08-01T12:19:59;25.10;99.90
23079;DHT22;11707;50.830;4.364;2022-08-01T12:22:25;25.40;99.90
23079;DHT22;11707;50.830;4.364;2022-08-01T12:24:51;25.50;99.90
23079;DHT22;11707;50.830;4.364;2022-08-01T12:27:28;25.40;99.90
23079;DHT22;11707;50.830;4.364;2022-08-01T12:29:55;25.40;99.90
23079;DHT22;11707;50.830;4.364;2022-08-01T12:32:29;25.40;99.90
23079;DHT22;11707;50.830;4.364;2022-08-01T12:35:04;25.40;99.90
23079;DHT22;11707;50.830;4.364;2022-08-01T12:37:30;25.30;99.90
23079;DHT22;11707;50.830;4.364;2022-08-01T12:39:56;25.50;99.90
23079;DHT22;11707;50.830;4.364;2022-08-01T12:42:22;25.70;99.90
23079;DHT22;11707;50.830;4.364;2022-08-01T12:45:12;25.90;99.90
23079;DHT22;11707;50.830;4.364;2022-08-01T12:47:39;26.30;99.90
23079;DHT22;11707;50.830;4.364;2022-08-01T12:50:07;26.30;99.90
23079;DHT22;11707;50.830;4.364;2022-08-01T12:52:34;26.30;99.90
23079;DHT22;11707;50.830;4.364;2022-08-01T12:55:20;26.40;99.90
23079;DHT22;11707;50.830;4.364;2022-08-01T12:57:49;26.50;99.90
23079;DHT22;11707;50.830;4.364;2022-08-01T13:00:26;26.30;99.90
23079;DHT22;11707;50.830;4.364;2022-08-01T13:05:58;26.90;99.90
23079;DHT22;11707;50.830;4.364;2022-08-01T13:08:33;28.70;99.90
23079;DHT22;11707;50.830;4.364;2022-08-01T13:11:10;28.50;98.40
23079;DHT22;11707;50.830;4.364;2022-08-01T13:13:50;28.70;98.60
23079;DHT22;11707;50.830;4.364;2022-08-01T13:16:21;28.70;97.10
23079;DHT22;11707;50.830;4.364;2022-08-01T13:18:50;27.60;98.30
23079;DHT22;11707;50.830;4.364;2022-08-01T13:21:22;27.30;99.10
23079;DHT22;11707;50.830;4.364;2022-08-01T13:24:07;26.80;99.90
23079;DHT22;11707;50.830;4.364;2022-08-01T13:26:45;26.40;99.90
23079;DHT22;11707;50.830;4.364;2022-08-01T13:29:13;26.00;99.90
23079;DHT22;11707;50.830;4.364;2022-08-01T13:31:40;25.90;99.90
23079;DHT22;11707;50.830;4.364;2022-08-01T13:34:06;25.70;99.90
23079;DHT22;11707;50.830;4.364;2022-08-01T13:36:32;25.60;99.90
23079;DHT22;11707;50.830;4.364;2022-08-01T13:38:59;25.80;99.90
23079;DHT22;11707;50.830;4.364;2022-08-01T13:41:44;25.90;99.90
23079;DHT22;11707;50.830;4.364;2022-08-01T13:44:10;25.70;99.90
23079;DHT22;11707;50.830;4.364;2022-08-01T13:46:37;25.40;99.90
23079;DHT22;11707;50.830;4.364;2022-08-01T13:49:05;25.30;99.90
23079;DHT22;11707;50.830;4.364;2022-08-01T13:51:31;25.60;99.90
23079;DHT22;11707;50.830;4.364;2022-08-01T13:53:57;26.60;99.90
23079;DHT22;11707;50.830;4.364;2022-08-01T13:56:29;28.00;98.10
23079;DHT22;11707;50.830;4.364;2022-08-01T13:58:56;29.00;95.10
23079;DHT22;11707;50.830;4.364;2022-08-01T14:01:23;29.50;93.30
23079;DHT22;11707;50.830;4.364;2022-08-01T14:03:49;29.70;91.80
23079;DHT22;11707;50.830;4.364;2022-08-01T14:06:16;30.10;90.50
23079;DHT22;11707;50.830;4.364;2022-08-01T14:08:43;29.90;89.80
23079;DHT22;11707;50.830;4.364;2022-08-01T14:11:09;30.20;88.50
23079;DHT22;11707;50.830;4.364;2022-08-01T14:13:35;29.90;87.70
23079;DHT22;11707;50.830;4.364;2022-08-01T14:16:07;29.00;90.00
23079;DHT22;11707;50.830;4.364;2022-08-01T14:18:33;28.80;90.30
23079;DHT22;11707;50.830;4.364;2022-08-01T14:20:58;28.70;90.50
23079;DHT22;11707;50.830;4.364;2022-08-01T14:23:25;28.10;90.80
23079;DHT22;11707;50.830;4.364;2022-08-01T14:25:51;28.00;91.10
23079;DHT22;11707;50.830;4.364;2022-08-01T14:28:16;28.10;91.00
23079;DHT22;11707;50.830;4.364;2022-08-01T14:30:42;27.60;91.40
23079;DHT22;11707;50.830;4.364;2022-08-01T14:33:12;28.20;91.20
23079;DHT22;11707;50.830;4.364;2022-08-01T14:35:38;27.90;90.80
23079;DHT22;11707;50.830;4.364;2022-08-01T14:38:03;27.30;91.60
23079;DHT22;11707;50.830;4.364;2022-08-01T14:40:29;26.60;92.50
23079;DHT22;11707;50.830;4.364;2022-08-01T14:42:55;26.20;93.50
23079;DHT22;11707;50.830;4.364;2022-08-01T14:45:21;26.40;93.40
23079;DHT22;11707;50.830;4.364;2022-08-01T14:47:46;26.40;93.70
23079;DHT22;11707;50.830;4.364;2022-08-01T14:50:14;27.50;92.40
23079;DHT22;11707;50.830;4.364;2022-08-01T14:52:41;27.70;91.60
23079;DHT22;11707;50.830;4.364;2022-08-01T14:55:08;28.40;91.40
23079;DHT22;11707;50.830;4.364;2022-08-01T14:57:35;29.90;87.30
23079;DHT22;11707;50.830;4.364;2022-08-01T15:00:01;30.10;84.80
23079;DHT22;11707;50.830;4.364;2022-08-01T15:02:28;30.20;83.70
23079;DHT22;11707;50.830;4.364;2022-08-01T15:04:54;30.60;81.10
23079;DHT22;11707;50.830;4.364;2022-08-01T15:07:19;31.10;78.80
23079;DHT22;11707;50.830;4.364;2022-08-01T15:09:45;31.60;76.40
23079;DHT22;11707;50.830;4.364;2022-08-01T15:12:11;31.70;75.00
23079;DHT22;11707;50.830;4.364;2022-08-01T15:14:37;31.80;73.10
23079;DHT22;11707;50.830;4.364;2022-08-01T15:17:24;30.90;74.20
23079;DHT22;11707;50.830;4.364;2022-08-01T15:19:52;30.30;76.10
23079;DHT22;11707;50.830;4.364;2022-08-01T15:22:18;30.00;77.00
23079;DHT22;11707;50.830;4.364;2022-08-01T15:24:44;29.30;78.10
23079;DHT22;11707;50.830;4.364;2022-08-01T15:27:10;28.80;79.70
23079;DHT22;11707;50.830;4.364;2022-08-01T15:29:36;28.50;80.10
23079;DHT22;11707;50.830;4.364;2022-08-01T15:32:04;28.00;81.70
23079;DHT22;11707;50.830;4.364;2022-08-01T15:34:32;27.40;84.00
23079;DHT22;11707;50.830;4.364;2022-08-01T15:36:58;27.10;85.50
23079;DHT22;11707;50.830;4.364;2022-08-01T15:39:24;27.00;84.40
23079;DHT22;11707;50.830;4.364;2022-08-01T15:41:50;26.60;85.50
23079;DHT22;11707;50.830;4.364;2022-08-01T15:44:16;26.30;87.90
23079;DHT22;11707;50.830;4.364;2022-08-01T15:46:47;26.40;87.80
23079;DHT22;11707;50.830;4.364;2022-08-01T15:49:13;26.60;87.10
23079;DHT22;11707;50.830;4.364;2022-08-01T15:51:40;26.70;87.10
23079;DHT22;11707;50.830;4.364;2022-08-01T15:54:06;26.70;87.30
23079;DHT22;11707;50.830;4.364;2022-08-01T15:56:33;26.60;87.70
23079;DHT22;11707;50.830;4.364;2022-08-01T15:58:59;26.40;88.50
23079;DHT22;11707;50.830;4.364;2022-08-01T16:01:24;26.40;89.30
23079;DHT22;11707;50.830;4.364;2022-08-01T16:03:54;26.20;89.20
23079;DHT22;11707;50.830;4.364;2022-08-01T16:06:20;26.10;89.70
23079;DHT22;11707;50.830;4.364;2022-08-01T16:08:46;26.20;89.80
23079;DHT22;11707;50.830;4.364;2022-08-01T16:11:12;26.00;90.00
23079;DHT22;11707;50.830;4.364;2022-08-01T16:13:38;26.00;90.20
23079;DHT22;11707;50.830;4.364;2022-08-01T16:16:03;26.10;90.20
23079;DHT22;11707;50.830;4.364;2022-08-01T16:18:30;26.10;90.10
23079;DHT22;11707;50.830;4.364;2022-08-01T16:20:56;26.10;90.10
23079;DHT22;11707;50.830;4.364;2022-08-01T16:23:25;25.90;90.20
23079;DHT22;11707;50.830;4.364;2022-08-01T16:25:52;25.80;90.00